Carter, KY (41128)

5:34 AM EST on January 22, 2017 (GMT -0500)
Warnock | | Change Station

Elev 896 ft 38.50 °N, 83.02 °W | Updated 1 minute ago

Mostly Cloudy
Mostly Cloudy
46.3 °F
Feels Like 46 °F
N
0.0
Wind Variable Wind from North
Gusts 0.0 mph

Today
High -- | Low -- °F
--% Chance of Precip.
Yesterday
High -- | Low -- °F
Precip. -- in
Pressure 29.56 in
Visibility 3.0 miles
Clouds Few 200 ft
Windchill 46 °F
Dew Point 46 °F
Humidity 98%
Rainfall 0.00 in
Snow Depth Not available.
7:44 AM 5:43 PM
Waning Crescent, 27% visible
SPECI KHTS 220953Z 36005KT 3SM BR FEW002 08/08 A2956 RMK AO2 T00830078
Pressure 29.56 in
Visibility 3.0 miles
Clouds Few 200 ft
Windchill 46 °F
Dew Point 46 °F
Humidity 98%
Rainfall 0.00 in
Snow Depth Not available.
7:44 AM 5:43 PM
Waning Crescent, 27% visible
SPECI KHTS 220953Z 36005KT 3SM BR FEW002 08/08 A2956 RMK AO2 T00830078

Get Your Daily Forecast Email!

Thanks for signing up!

Be on the lookout for a verification email in your inbox.

You'll start receiving the daily forecast at 8 AM.

×

10-Day Weather Forecast

Almanac

Astronomy

Jan. 22, 2017 Rise Set
Actual Time
Civil Twilight
Nautical Twilight
Astronomical Twilight
Moon
Length of Visible Light
Length of Day
Tomorrow will be .
, % of the Moon is Illuminated

Today's Extremes

State Highs State Lows

Community

WunderPhotos

Upload Photos

1,962,540 photos uploaded!

WunderBlog® & News

Nearby

Air Quality

  Air Quality AQ Index Pollutant
Not available.

Snow Depth

Station Depth Elevation

Earthquake Activity

City Distance Mag. Time & Date
Minimum magnitude displayed is 2.5.

Coastal Water Temperatures

Place Temperature

Stations

Nearby Weather Stations

Station Location Temp. Windchill Dew Point Humidity Wind Precip. Elev Updated Type
                   

Watches & Warnings

There are currently no watches in effect.